Time;durP1;ratioP1;P1;durP2;ratioP2;P2;SDS_P1;SDS_P2;PMS_P1;PMS_P2;Temp;Humidity;BMP_temperature;BMP_pressure;BME280_temperature;BME280_humidity;BME280_pressure;Samples;Min_cycle;Max_cycle;Signal;HPM_P1;HPM_P2
2021/10/14 00:00:17;;;;;;;10.57;4.78;;;14.60;99.90;;;;;;5069685;28;20194;-75
2021/10/14 00:02:42;;;;;;;10.90;4.97;;;14.60;99.90;;;;;;5059139;28;20723;-75
2021/10/14 00:05:09;;;;;;;13.93;5.03;;;14.50;99.90;;;;;;5068030;28;20198;-75
2021/10/14 00:07:34;;;;;;;15.43;5.43;;;14.50;99.90;;;;;;5063291;28;20216;-75
2021/10/14 00:10:00;;;;;;;8.85;4.50;;;14.50;99.90;;;;;;5069245;28;20312;-75
2021/10/14 00:12:26;;;;;;;14.07;5.47;;;14.50;99.90;;;;;;5063219;28;20209;-74
2021/10/14 00:14:51;;;;;;;14.43;5.38;;;14.50;99.90;;;;;;5050621;28;20178;-75
2021/10/14 00:17:17;;;;;;;12.48;5.35;;;14.50;99.90;;;;;;5080550;28;20294;-75
2021/10/14 00:19:42;;;;;;;9.38;5.28;;;14.50;99.90;;;;;;5048092;28;20182;-75
2021/10/14 00:22:08;;;;;;;10.30;5.40;;;14.50;99.90;;;;;;5067095;28;20194;-75
2021/10/14 00:24:34;;;;;;;14.48;5.70;;;14.50;99.90;;;;;;5049299;28;20198;-77
2021/10/14 00:26:59;;;;;;;12.27;6.30;;;14.50;99.90;;;;;;5063704;28;20183;-76
2021/10/14 00:29:25;;;;;;;17.42;6.15;;;14.50;99.90;;;;;;5078166;28;20182;-76
2021/10/14 00:31:51;;;;;;;17.80;6.47;;;14.50;99.90;;;;;;5066246;28;20252;-75
2021/10/14 00:34:16;;;;;;;13.13;6.68;;;14.50;99.90;;;;;;5066616;28;20187;-75
2021/10/14 00:36:42;;;;;;;11.90;6.63;;;14.50;99.90;;;;;;5064945;28;20186;-75
2021/10/14 00:39:08;;;;;;;18.50;7.38;;;14.50;99.90;;;;;;5046507;28;20777;-75
2021/10/14 00:41:33;;;;;;;12.68;7.05;;;14.50;99.90;;;;;;5044859;28;20221;-77
2021/10/14 00:43:59;;;;;;;12.82;7.03;;;14.50;99.90;;;;;;5047453;28;20214;-78
2021/10/14 00:46:25;;;;;;;15.90;8.30;;;14.50;99.90;;;;;;5054574;28;20428;-78
2021/10/14 00:48:51;;;;;;;18.73;8.75;;;15.00;99.90;;;;;;5044487;28;20496;-77
2021/10/14 00:51:17;;;;;;;15.57;8.38;;;15.30;99.90;;;;;;5067353;28;20803;-75
2021/10/14 00:53:43;;;;;;;17.17;8.40;;;15.40;99.90;;;;;;5047330;28;20419;-75
2021/10/14 00:56:09;;;;;;;21.58;9.05;;;15.50;99.90;;;;;;5047039;28;20407;-75
2021/10/14 00:58:36;;;;;;;16.83;8.93;;;15.60;99.90;;;;;;5062238;28;20404;-75
2021/10/14 01:01:03;;;;;;;17.87;8.87;;;15.70;99.90;;;;;;5047739;28;20409;-75
2021/10/14 01:03:30;;;;;;;17.75;8.88;;;15.70;99.90;;;;;;5058718;28;20429;-76
2021/10/14 01:05:57;;;;;;;18.17;8.35;;;15.80;99.90;;;;;;5049725;28;20240;-76
2021/10/14 01:08:23;;;;;;;19.80;8.38;;;15.40;99.90;;;;;;5063910;28;20608;-76
2021/10/14 01:10:48;;;;;;;22.75;9.93;;;15.20;99.90;;;;;;5068157;28;20178;-76
2021/10/14 01:13:16;;;;;;;23.35;10.27;;;15.10;99.90;;;;;;5078262;28;20251;-75
2021/10/14 01:15:41;;;;;;;20.88;11.02;;;14.90;99.90;;;;;;5067907;28;20190;-76
2021/10/14 01:18:07;;;;;;;24.40;11.63;;;14.80;99.90;;;;;;5044374;28;21074;-76
2021/10/14 01:20:33;;;;;;;19.23;11.98;;;14.80;99.90;;;;;;5065256;28;20194;-76
2021/10/14 01:22:59;;;;;;;26.35;12.98;;;14.70;99.90;;;;;;5059811;28;20182;-76
2021/10/14 01:25:25;;;;;;;23.08;13.25;;;14.70;99.90;;;;;;5067379;28;20224;-76
2021/10/14 01:27:51;;;;;;;22.83;14.60;;;14.70;99.90;;;;;;5063302;28;20337;-75
2021/10/14 01:30:17;;;;;;;31.40;15.65;;;14.70;99.90;;;;;;5066139;28;20662;-75
2021/10/14 01:32:46;;;;;;;32.40;17.48;;;14.60;99.90;;;;;;5061890;28;20645;-75
2021/10/14 01:35:12;;;;;;;32.40;17.83;;;14.70;99.90;;;;;;5048239;28;20191;-75
2021/10/14 01:37:38;;;;;;;39.08;19.55;;;14.70;99.90;;;;;;5073471;28;20183;-74
2021/10/14 01:40:05;;;;;;;34.10;19.30;;;14.60;99.90;;;;;;5067862;28;20198;-74
2021/10/14 01:42:31;;;;;;;35.03;18.95;;;14.60;99.90;;;;;;5042327;28;20186;-74
2021/10/14 01:45:00;;;;;;;33.15;18.33;;;14.60;99.90;;;;;;5047310;28;20182;-74
2021/10/14 01:47:30;;;;;;;34.10;16.05;;;14.60;99.90;;;;;;5043929;28;20183;-75
2021/10/14 01:49:56;;;;;;;28.52;15.65;;;14.60;99.90;;;;;;5081640;28;20595;-75
2021/10/14 01:52:22;;;;;;;30.05;14.00;;;14.60;99.90;;;;;;5058706;28;20203;-74
2021/10/14 01:54:48;;;;;;;25.25;14.50;;;14.60;99.90;;;;;;5067271;28;20181;-75
2021/10/14 01:57:13;;;;;;;25.02;13.77;;;14.60;99.90;;;;;;5063333;28;20305;-74
2021/10/14 01:59:39;;;;;;;27.83;13.65;;;14.60;99.90;;;;;;5062894;28;20327;-74
2021/10/14 02:02:05;;;;;;;28.98;14.38;;;14.60;99.90;;;;;;5063219;28;20206;-75
2021/10/14 02:04:30;;;;;;;30.10;14.65;;;14.60;99.90;;;;;;5065148;28;20190;-75
2021/10/14 02:06:56;;;;;;;29.88;14.45;;;14.60;99.90;;;;;;5061184;28;20203;-75
2021/10/14 02:09:22;;;;;;;23.27;13.25;;;14.70;99.90;;;;;;5065885;28;20194;-75
2021/10/14 02:11:47;;;;;;;29.88;13.45;;;14.70;99.90;;;;;;5064091;28;20215;-75
2021/10/14 02:14:13;;;;;;;24.70;12.95;;;14.70;99.90;;;;;;5060970;28;20558;-76
2021/10/14 02:16:38;;;;;;;33.05;13.55;;;14.70;99.90;;;;;;5067012;28;20186;-75
2021/10/14 02:19:04;;;;;;;27.35;14.48;;;14.70;99.90;;;;;;5079466;28;20183;-76
2021/10/14 02:21:30;;;;;;;27.33;14.80;;;14.70;99.90;;;;;;5067298;28;20197;-76
2021/10/14 02:23:55;;;;;;;33.03;15.80;;;14.70;99.90;;;;;;5062398;28;20186;-75
2021/10/14 02:26:21;;;;;;;34.40;16.23;;;14.70;99.90;;;;;;5063431;28;20190;-74
2021/10/14 02:28:47;;;;;;;35.92;16.63;;;14.70;99.90;;;;;;5060497;28;20186;-75
2021/10/14 02:31:12;;;;;;;39.03;16.95;;;14.70;99.90;;;;;;5044202;28;20937;-75
2021/10/14 02:33:38;;;;;;;37.25;17.83;;;14.70;99.90;;;;;;5062127;28;20191;-76
2021/10/14 02:36:04;;;;;;;38.25;16.23;;;14.70;99.90;;;;;;5046537;28;20251;-74
2021/10/14 02:38:29;;;;;;;31.63;15.45;;;14.70;99.90;;;;;;5060178;28;20297;-75
2021/10/14 02:40:55;;;;;;;29.25;14.57;;;14.70;99.90;;;;;;5064086;28;20228;-75
2021/10/14 02:43:21;;;;;;;39.42;15.50;;;14.70;99.90;;;;;;5063816;28;20187;-76
2021/10/14 02:45:47;;;;;;;28.17;13.70;;;14.60;99.90;;;;;;5064217;28;20247;-76
2021/10/14 02:48:12;;;;;;;26.08;12.75;;;14.70;99.90;;;;;;5045199;28;20183;-75
2021/10/14 02:50:38;;;;;;;21.75;11.68;;;14.60;99.90;;;;;;5065679;28;20240;-75
2021/10/14 02:53:04;;;;;;;21.92;11.27;;;14.60;99.90;;;;;;5059240;28;20241;-75
2021/10/14 02:55:30;;;;;;;22.52;9.50;;;14.60;99.90;;;;;;5062632;28;20602;-75
2021/10/14 02:57:55;;;;;;;21.35;9.32;;;14.60;99.90;;;;;;5059284;28;20197;-74
2021/10/14 03:00:21;;;;;;;23.27;9.10;;;14.60;99.90;;;;;;5069331;28;21022;-76
2021/10/14 03:02:46;;;;;;;29.35;10.05;;;14.60;99.90;;;;;;5082866;28;20264;-76
2021/10/14 03:05:12;;;;;;;21.95;10.38;;;14.60;99.90;;;;;;5070777;28;20190;-75
2021/10/14 03:07:38;;;;;;;32.55;9.88;;;14.60;99.90;;;;;;5062980;28;20190;-74
2021/10/14 03:10:04;;;;;;;16.52;8.07;;;14.60;99.90;;;;;;5069502;28;20213;-73
2021/10/14 03:12:29;;;;;;;16.98;7.63;;;14.60;99.90;;;;;;5065037;28;20202;-75
2021/10/14 03:14:55;;;;;;;19.70;8.48;;;14.50;99.90;;;;;;5067673;28;20285;-74
2021/10/14 03:17:21;;;;;;;18.90;7.53;;;14.50;99.90;;;;;;5065800;28;20207;-75
2021/10/14 03:19:46;;;;;;;17.60;8.20;;;14.50;99.90;;;;;;5066095;28;20182;-75
2021/10/14 03:22:12;;;;;;;15.75;7.80;;;14.50;99.90;;;;;;5062959;28;20219;-74
2021/10/14 03:24:38;;;;;;;18.65;8.02;;;14.50;99.90;;;;;;5068577;28;20186;-75
2021/10/14 03:27:03;;;;;;;16.40;7.60;;;14.40;99.90;;;;;;5060109;28;20289;-75
2021/10/14 03:29:29;;;;;;;17.83;7.05;;;14.50;99.90;;;;;;5065631;28;20187;-75
2021/10/14 03:31:54;;;;;;;18.05;7.38;;;14.50;99.90;;;;;;5064873;28;20252;-74
2021/10/14 03:34:20;;;;;;;15.07;7.22;;;14.50;99.90;;;;;;5067929;28;20183;-75
2021/10/14 03:36:46;;;;;;;22.20;7.05;;;14.50;99.90;;;;;;5068141;28;20182;-75
2021/10/14 03:39:11;;;;;;;13.48;6.25;;;14.40;99.90;;;;;;5067168;28;20187;-73
2021/10/14 03:41:37;;;;;;;14.82;5.57;;;14.50;99.90;;;;;;5068960;28;20212;-73
2021/10/14 03:44:03;;;;;;;18.52;6.10;;;14.40;99.90;;;;;;5065714;28;20203;-74
2021/10/14 03:46:28;;;;;;;18.33;5.45;;;14.40;99.90;;;;;;5065119;28;20209;-74
2021/10/14 03:48:54;;;;;;;14.50;5.10;;;14.40;99.90;;;;;;5044826;28;20194;-73
2021/10/14 03:51:20;;;;;;;16.73;5.20;;;14.40;99.90;;;;;;5047032;28;20237;-73
2021/10/14 03:53:45;;;;;;;11.75;5.13;;;14.40;99.90;;;;;;5045583;28;20178;-74
2021/10/14 03:56:11;;;;;;;20.70;4.93;;;14.40;99.90;;;;;;5048088;28;20710;-73
2021/10/14 03:58:37;;;;;;;19.17;4.97;;;14.40;99.90;;;;;;5064050;28;20209;-74
2021/10/14 04:01:03;;;;;;;14.38;5.03;;;14.40;99.90;;;;;;5062024;28;20194;-73
2021/10/14 04:03:29;;;;;;;11.27;4.82;;;14.40;99.90;;;;;;5057834;28;20263;-74
2021/10/14 04:05:54;;;;;;;10.75;4.35;;;14.40;99.90;;;;;;5061857;28;20179;-74
2021/10/14 04:08:20;;;;;;;11.05;4.55;;;14.40;99.90;;;;;;5063900;28;20179;-74
2021/10/14 04:10:46;;;;;;;12.27;4.03;;;14.40;99.90;;;;;;5061876;28;20936;-74
2021/10/14 04:13:11;;;;;;;9.07;3.83;;;14.40;99.90;;;;;;5056720;28;20208;-74
2021/10/14 04:15:37;;;;;;;11.93;3.90;;;14.40;99.90;;;;;;5063252;28;20211;-74
2021/10/14 04:18:03;;;;;;;9.70;3.78;;;14.40;99.90;;;;;;5058156;28;20194;-74
2021/10/14 04:20:28;;;;;;;9.48;3.85;;;14.30;99.90;;;;;;5064416;28;20762;-74
2021/10/14 04:22:54;;;;;;;10.52;4.00;;;14.30;99.90;;;;;;5056049;28;20211;-74
2021/10/14 04:25:20;;;;;;;7.40;3.60;;;14.30;99.90;;;;;;5057541;28;20218;-73
2021/10/14 04:27:46;;;;;;;9.48;3.25;;;14.30;99.90;;;;;;5057165;28;20203;-74
2021/10/14 04:30:12;;;;;;;11.25;3.65;;;14.30;99.90;;;;;;5044425;28;20187;-73
2021/10/14 04:32:37;;;;;;;4.68;2.78;;;14.30;99.90;;;;;;5063056;28;20213;-73
2021/10/14 04:35:04;;;;;;;7.90;3.10;;;14.30;99.90;;;;;;5067407;28;20186;-73
2021/10/14 04:37:30;;;;;;;7.03;3.25;;;14.30;99.90;;;;;;5062432;28;20241;-73
2021/10/14 04:39:55;;;;;;;11.52;3.10;;;14.30;99.90;;;;;;5063501;28;20199;-73
2021/10/14 04:42:21;;;;;;;6.63;3.13;;;14.30;99.90;;;;;;5054959;28;20182;-73
2021/10/14 04:44:47;;;;;;;9.43;3.10;;;14.30;99.90;;;;;;5058982;28;20206;-73
2021/10/14 04:47:18;;;;;;;11.88;4.00;;;14.30;99.90;;;;;;5057780;28;20239;-73
2021/10/14 04:49:47;;;;;;;9.68;3.20;;;14.30;99.90;;;;;;5066723;28;20209;-73
2021/10/14 04:52:13;;;;;;;8.02;3.35;;;14.30;99.90;;;;;;5062143;28;20266;-73
2021/10/14 04:54:40;;;;;;;9.75;3.33;;;14.30;99.90;;;;;;5048845;28;20879;-73
2021/10/14 04:57:06;;;;;;;9.95;3.50;;;14.30;99.90;;;;;;5061591;28;20975;-74
2021/10/14 04:59:31;;;;;;;12.13;3.70;;;14.90;99.90;;;;;;5047708;28;20495;-73
2021/10/14 05:01:57;;;;;;;8.97;3.60;;;15.20;99.90;;;;;;5042425;28;20803;-73
2021/10/14 05:04:23;;;;;;;6.95;3.30;;;15.40;99.90;;;;;;5047482;28;20949;-73
2021/10/14 05:06:48;;;;;;;9.85;4.38;;;15.50;99.90;;;;;;5062769;28;20414;-73
2021/10/14 05:09:14;;;;;;;7.53;3.67;;;15.60;99.90;;;;;;5064207;28;20190;-73
2021/10/14 05:11:40;;;;;;;12.07;4.05;;;15.30;99.90;;;;;;5065819;28;20214;-72
2021/10/14 05:14:05;;;;;;;8.15;4.18;;;15.00;99.90;;;;;;5063166;28;20647;-73
2021/10/14 05:16:33;;;;;;;8.45;3.60;;;14.90;99.90;;;;;;5066039;28;20261;-73
2021/10/14 05:19:03;;;;;;;11.20;3.92;;;14.80;99.90;;;;;;5060250;28;20186;-73
2021/10/14 05:21:30;;;;;;;13.70;4.03;;;14.70;99.90;;;;;;5066107;28;20195;-73
2021/10/14 05:23:59;;;;;;;8.30;4.22;;;14.70;99.90;;;;;;5060492;28;20218;-73
2021/10/14 05:26:30;;;;;;;9.60;4.50;;;14.60;99.90;;;;;;5048781;28;20194;-73
2021/10/14 05:28:56;;;;;;;9.80;4.07;;;14.60;99.90;;;;;;5057867;28;20186;-73
2021/10/14 05:31:22;;;;;;;13.20;4.70;;;14.60;99.90;;;;;;5064816;28;20716;-73
2021/10/14 05:33:48;;;;;;;13.60;5.40;;;14.60;99.90;;;;;;5061448;28;20186;-73
2021/10/14 05:36:15;;;;;;;12.77;5.28;;;14.60;99.90;;;;;;5067338;28;20202;-73
2021/10/14 05:38:42;;;;;;;17.55;5.03;;;14.60;99.90;;;;;;5060877;28;20175;-74
2021/10/14 05:41:07;;;;;;;13.32;5.00;;;14.60;99.90;;;;;;5047511;28;20183;-73
2021/10/14 05:43:33;;;;;;;11.38;4.70;;;14.60;99.90;;;;;;5058544;28;20582;-73
2021/10/14 05:45:59;;;;;;;15.23;4.57;;;14.50;99.90;;;;;;5065839;28;20181;-74
2021/10/14 05:48:25;;;;;;;11.77;4.30;;;14.50;99.90;;;;;;5057861;28;20245;-72
2021/10/14 05:50:50;;;;;;;14.13;4.30;;;14.50;99.90;;;;;;5066189;28;20191;-73
2021/10/14 05:53:16;;;;;;;17.15;4.50;;;14.50;99.90;;;;;;5063459;28;20261;-73
2021/10/14 05:55:41;;;;;;;12.50;4.50;;;14.50;99.90;;;;;;5044839;28;20273;-74
2021/10/14 05:58:07;;;;;;;10.98;4.40;;;14.50;99.90;;;;;;5064201;28;20351;-73
2021/10/14 06:00:33;;;;;;;8.80;4.28;;;14.50;99.90;;;;;;5067530;28;20186;-72
2021/10/14 06:02:58;;;;;;;11.25;4.40;;;14.50;99.90;;;;;;5028708;28;20232;-73
2021/10/14 06:05:24;;;;;;;13.85;5.57;;;14.50;99.90;;;;;;5007255;28;20181;-72
2021/10/14 06:07:50;;;;;;;11.45;4.53;;;14.50;99.90;;;;;;5004077;28;20270;-72
2021/10/14 06:10:16;;;;;;;13.55;4.50;;;14.50;99.90;;;;;;5012643;28;20180;-72
2021/10/14 06:12:42;;;;;;;11.20;4.70;;;14.50;99.90;;;;;;5004851;28;20238;-72
2021/10/14 06:15:08;;;;;;;12.82;4.82;;;14.50;99.90;;;;;;5016850;28;20184;-69
2021/10/14 06:17:34;;;;;;;11.50;5.25;;;14.50;99.90;;;;;;5003839;28;20185;-71
2021/10/14 06:20:01;;;;;;;13.95;5.05;;;14.60;99.90;;;;;;5013508;28;20207;-73
2021/10/14 06:22:26;;;;;;;14.60;5.15;;;14.60;99.90;;;;;;5029698;28;20227;-72
2021/10/14 06:24:52;;;;;;;13.32;4.60;;;14.60;99.90;;;;;;5014864;28;20228;-72
2021/10/14 06:27:18;;;;;;;13.57;5.63;;;14.60;99.90;;;;;;5009631;28;20246;-72
2021/10/14 06:29:43;;;;;;;13.45;4.88;;;14.60;99.90;;;;;;5008846;28;20192;-73
2021/10/14 06:32:09;;;;;;;12.55;5.10;;;14.60;99.90;;;;;;5019781;28;20204;-73
2021/10/14 06:34:35;;;;;;;16.33;5.70;;;14.60;99.90;;;;;;5015900;28;20286;-74
2021/10/14 06:37:01;;;;;;;11.23;5.90;;;14.60;99.90;;;;;;5015873;28;20180;-72
2021/10/14 06:39:27;;;;;;;12.48;6.28;;;14.60;99.90;;;;;;5013494;28;20176;-75
2021/10/14 06:41:55;;;;;;;9.80;6.00;;;14.60;99.90;;;;;;5013828;28;20192;-73
2021/10/14 06:44:22;;;;;;;19.15;6.60;;;14.60;99.90;;;;;;5016786;28;20192;-73
2021/10/14 06:46:47;;;;;;;12.15;6.20;;;14.60;99.90;;;;;;5013975;28;20586;-74
2021/10/14 06:49:13;;;;;;;16.75;6.13;;;14.60;99.90;;;;;;5015619;28;20193;-72
2021/10/14 06:51:39;;;;;;;12.32;5.55;;;14.50;99.90;;;;;;5015009;28;20200;-73
2021/10/14 06:54:04;;;;;;;12.25;5.53;;;14.50;99.90;;;;;;5011108;28;20184;-73
2021/10/14 06:56:30;;;;;;;14.35;5.90;;;14.50;99.90;;;;;;5029758;28;20290;-72
2021/10/14 06:58:56;;;;;;;13.30;5.32;;;14.50;99.90;;;;;;5016241;28;20514;-75
2021/10/14 07:01:22;;;;;;;12.23;4.90;;;14.50;99.90;;;;;;5033602;28;20226;-73
2021/10/14 07:03:47;;;;;;;10.07;5.40;;;14.50;99.90;;;;;;5052436;28;20229;-74
2021/10/14 07:06:15;;;;;;;13.40;4.68;;;14.60;99.90;;;;;;5046945;28;20205;-73
2021/10/14 07:08:40;;;;;;;8.88;4.60;;;14.50;99.90;;;;;;5064457;28;20316;-72
2021/10/14 07:11:06;;;;;;;10.90;4.70;;;14.50;99.90;;;;;;5065959;28;20309;-73
2021/10/14 07:13:32;;;;;;;9.30;4.22;;;14.60;99.90;;;;;;5060376;28;20229;-73
2021/10/14 07:15:58;;;;;;;9.18;4.50;;;14.60;99.90;;;;;;5049604;28;20237;-75
2021/10/14 07:18:24;;;;;;;13.02;4.72;;;14.60;99.90;;;;;;5062719;28;20190;-73
2021/10/14 07:20:50;;;;;;;12.55;4.18;;;14.60;99.90;;;;;;5069694;28;20186;-71
2021/10/14 07:23:16;;;;;;;9.50;4.30;;;14.60;99.90;;;;;;5063364;28;20174;-70
2021/10/14 07:25:43;;;;;;;14.30;4.72;;;14.60;99.90;;;;;;5051142;28;20197;-72
2021/10/14 07:28:10;;;;;;;10.85;4.18;;;14.60;99.90;;;;;;5066944;28;20748;-72
2021/10/14 07:30:38;;;;;;;10.90;4.70;;;14.70;99.90;;;;;;5049673;28;20565;-73
2021/10/14 07:33:04;;;;;;;9.52;4.43;;;14.70;99.90;;;;;;5064848;28;20210;-72
2021/10/14 07:35:41;;;;;;;11.45;4.45;;;14.70;99.90;;;;;;5046686;28;20658;-71
2021/10/14 07:38:10;;;;;;;14.27;5.55;;;14.70;99.90;;;;;;5065845;28;20540;-72
2021/10/14 07:40:39;;;;;;;14.60;4.80;;;14.70;99.90;;;;;;5067230;28;20639;-73
2021/10/14 07:43:06;;;;;;;10.63;5.05;;;14.70;99.90;;;;;;5080832;28;20194;-73
2021/10/14 07:45:32;;;;;;;9.43;5.22;;;14.80;99.90;;;;;;5065382;28;20547;-73
2021/10/14 07:47:59;;;;;;;16.40;6.70;;;14.80;99.90;;;;;;5081453;28;20190;-72
2021/10/14 07:50:24;;;;;;;12.68;6.55;;;14.80;99.90;;;;;;5065865;28;20190;-73
2021/10/14 07:52:50;;;;;;;10.45;6.13;;;14.80;99.90;;;;;;5065327;28;20206;-72
2021/10/14 07:55:15;;;;;;;12.00;6.40;;;14.80;99.90;;;;;;5068580;28;20190;-73
2021/10/14 07:57:41;;;;;;;13.13;6.60;;;14.80;99.90;;;;;;5065591;28;20179;-72
2021/10/14 08:00:08;;;;;;;14.77;7.00;;;14.80;99.90;;;;;;5068123;28;20285;-72
2021/10/14 08:02:42;;;;;;;14.05;6.55;;;14.90;99.90;;;;;;5077924;28;20321;-73
2021/10/14 08:05:09;;;;;;;16.75;6.60;;;14.90;99.90;;;;;;5048616;28;20273;-73
2021/10/14 08:07:35;;;;;;;10.13;5.30;;;14.90;99.90;;;;;;5064840;28;20183;-72
2021/10/14 08:10:01;;;;;;;15.38;5.78;;;15.00;99.90;;;;;;5082987;28;20239;-72
2021/10/14 08:12:27;;;;;;;12.02;4.95;;;15.00;99.90;;;;;;5065015;28;20214;-73
2021/10/14 08:14:53;;;;;;;9.18;4.38;;;15.00;99.90;;;;;;5048502;28;20193;-73
2021/10/14 08:17:19;;;;;;;10.20;4.68;;;15.00;99.90;;;;;;5062962;28;20175;-72
2021/10/14 08:19:45;;;;;;;8.82;4.35;;;15.00;99.90;;;;;;5063385;28;20190;-72
2021/10/14 08:22:10;;;;;;;11.13;4.20;;;15.00;99.90;;;;;;5060809;28;20201;-73
2021/10/14 08:24:38;;;;;;;9.20;4.18;;;15.10;99.90;;;;;;5063049;28;20272;-73
2021/10/14 08:27:04;;;;;;;9.75;4.38;;;15.20;99.90;;;;;;5061181;28;20190;-73
2021/10/14 08:29:29;;;;;;;6.22;4.28;;;15.30;99.90;;;;;;5080207;28;20684;-72
2021/10/14 08:31:56;;;;;;;10.20;4.40;;;15.40;99.90;;;;;;5064843;28;20229;-73
2021/10/14 08:34:22;;;;;;;11.45;4.65;;;15.40;99.90;;;;;;5049005;28;20197;-73
2021/10/14 08:36:48;;;;;;;14.50;4.32;;;15.40;99.90;;;;;;5060699;28;20538;-72
2021/10/14 08:39:13;;;;;;;9.40;3.85;;;15.40;99.90;;;;;;5065658;28;20190;-73
2021/10/14 08:41:40;;;;;;;8.85;3.38;;;15.50;99.90;;;;;;5048645;28;20205;-73
2021/10/14 08:44:06;;;;;;;8.00;3.17;;;15.50;99.90;;;;;;5060239;28;20186;-73
2021/10/14 08:46:32;;;;;;;6.45;3.15;;;15.40;99.90;;;;;;5064360;28;20197;-73
2021/10/14 08:48:59;;;;;;;8.45;3.67;;;15.40;99.90;;;;;;5058456;28;20423;-73
2021/10/14 08:51:25;;;;;;;7.47;3.20;;;15.90;99.90;;;;;;5066003;28;20879;-72
2021/10/14 08:53:50;;;;;;;11.60;3.65;;;16.30;99.90;;;;;;5063857;28;20189;-73
2021/10/14 08:56:16;;;;;;;8.20;3.38;;;16.00;99.90;;;;;;5060670;28;20713;-72
2021/10/14 08:58:41;;;;;;;14.90;3.90;;;15.80;99.90;;;;;;5062015;28;20182;-72
2021/10/14 09:01:10;;;;;;;9.95;3.92;;;15.80;99.90;;;;;;5067478;28;20183;-72
2021/10/14 09:03:41;;;;;;;8.32;3.90;;;15.80;99.90;;;;;;5064459;28;20214;-72
2021/10/14 09:06:08;;;;;;;11.30;5.43;;;15.80;99.90;;;;;;5062392;28;20639;-72
2021/10/14 09:08:54;;;;;;;8.07;4.50;;;15.80;99.90;;;;;;5059377;28;20186;-72
2021/10/14 09:11:25;;;;;;;11.25;4.53;;;15.80;99.90;;;;;;5045187;28;20214;-72
2021/10/14 09:13:53;;;;;;;12.63;4.13;;;15.70;99.90;;;;;;5060442;28;20213;-73
2021/10/14 09:16:27;;;;;;;11.40;4.22;;;15.70;99.90;;;;;;5064750;28;20865;-72
2021/10/14 09:18:55;;;;;;;17.27;5.18;;;15.70;99.90;;;;;;5061819;28;20229;-72
2021/10/14 09:21:25;;;;;;;8.07;3.88;;;15.60;99.90;;;;;;5066948;28;20255;-73
2021/10/14 09:23:52;;;;;;;9.55;3.72;;;15.60;99.90;;;;;;5061312;28;20259;-73
2021/10/14 09:26:32;;;;;;;13.07;3.78;;;15.60;99.90;;;;;;5057461;28;20228;-72
2021/10/14 09:29:11;;;;;;;6.93;3.47;;;15.60;99.90;;;;;;5064146;28;20341;-72
2021/10/14 09:31:58;;;;;;;10.63;3.72;;;15.70;99.90;;;;;;5061220;28;20221;-73
2021/10/14 09:34:39;;;;;;;11.98;3.78;;;15.70;99.90;;;;;;5062640;28;20173;-73
2021/10/14 09:37:18;;;;;;;10.25;3.00;;;15.70;99.90;;;;;;5062643;28;20183;-72
2021/10/14 09:40:02;;;;;;;13.05;3.45;;;15.70;99.90;;;;;;5046026;28;20198;-73
2021/10/14 09:43:02;;;;;;;11.60;3.42;;;15.70;99.90;;;;;;5057860;28;20197;-73
2021/10/14 09:45:32;;;;;;;9.45;2.63;;;15.70;99.90;;;;;;5057176;28;20202;-74
2021/10/14 09:48:04;;;;;;;12.70;3.00;;;15.80;99.90;;;;;;5044163;28;20214;-74
2021/10/14 09:50:30;;;;;;;10.70;2.55;;;15.80;99.90;;;;;;5047769;28;20191;-74
2021/10/14 09:53:01;;;;;;;9.15;2.33;;;15.90;99.90;;;;;;5079320;28;20224;-74
2021/10/14 09:55:27;;;;;;;8.75;2.50;;;15.80;99.90;;;;;;5065579;28;20291;-73
2021/10/14 09:57:55;;;;;;;5.90;2.00;;;15.80;99.90;;;;;;5058782;28;20186;-74
2021/10/14 10:00:22;;;;;;;8.05;2.38;;;15.80;99.90;;;;;;5077064;28;20190;-73
2021/10/14 10:02:50;;;;;;;8.52;2.40;;;15.90;99.90;;;;;;5058624;28;20215;-73
2021/10/14 10:05:16;;;;;;;10.18;2.72;;;15.90;99.90;;;;;;5066799;28;20186;-73
2021/10/14 10:07:43;;;;;;;7.50;2.65;;;15.90;99.90;;;;;;5060063;28;20183;-73
2021/10/14 10:10:14;;;;;;;6.95;2.65;;;15.90;99.90;;;;;;5069282;28;20201;-73
2021/10/14 10:12:40;;;;;;;6.57;2.53;;;16.00;99.90;;;;;;5060728;28;20214;-72
2021/10/14 10:15:06;;;;;;;6.55;2.15;;;16.10;99.90;;;;;;5069362;28;20182;-73
2021/10/14 10:17:37;;;;;;;7.22;2.38;;;16.30;99.90;;;;;;5051422;28;20194;-73
2021/10/14 10:20:04;;;;;;;12.50;2.55;;;16.40;99.90;;;;;;5067250;28;20233;-72
2021/10/14 10:22:33;;;;;;;8.57;2.50;;;16.40;99.90;;;;;;5062385;28;20190;-72
2021/10/14 10:25:24;;;;;;;9.43;2.65;;;16.40;99.90;;;;;;5050747;28;20194;-74
2021/10/14 10:27:52;;;;;;;7.32;2.00;;;16.40;99.90;;;;;;5036688;28;20202;-72
2021/10/14 10:30:39;;;;;;;7.82;2.50;;;16.30;99.90;;;;;;5066702;28;20207;-71
2021/10/14 10:33:07;;;;;;;16.08;2.75;;;16.20;99.90;;;;;;5065281;28;20221;-70
2021/10/14 10:35:48;;;;;;;10.80;2.25;;;16.20;99.90;;;;;;5067817;28;20187;-72
2021/10/14 10:38:20;;;;;;;5.70;1.98;;;16.40;99.90;;;;;;5075011;28;20659;-72
2021/10/14 10:40:49;;;;;;;10.80;3.00;;;16.60;99.90;;;;;;5042791;28;20190;-73
2021/10/14 10:43:26;;;;;;;5.78;1.92;;;17.30;99.90;;;;;;5063369;28;20468;-73
2021/10/14 10:45:53;;;;;;;;;;;19.20;94.60;;;;;;5067684;28;20029;-72
2021/10/14 10:48:37;;;;;;;5.90;1.70;;;19.30;95.50;;;;;;5047606;28;20405;-71
2021/10/14 10:51:06;;;;;;;7.95;1.88;;;20.80;89.70;;;;;;5064979;28;20568;-73
2021/10/14 10:53:42;;;;;;;10.27;1.80;;;20.60;90.80;;;;;;5049332;28;20233;-71
2021/10/14 10:56:29;;;;;;;5.43;1.60;;;20.30;91.30;;;;;;5056464;28;20206;-72
2021/10/14 10:58:56;;;;;;;7.95;1.60;;;20.10;91.90;;;;;;5063051;28;20178;-72
2021/10/14 11:01:21;;;;;;;7.70;1.80;;;19.90;91.90;;;;;;5050598;28;20182;-70
2021/10/14 11:04:00;;;;;;;6.07;1.70;;;19.70;91.70;;;;;;5077843;28;20995;-69
2021/10/14 11:06:28;;;;;;;6.28;1.73;;;19.50;91.70;;;;;;5066305;28;20182;-70
2021/10/14 11:09:04;;;;;;;9.48;1.92;;;19.30;91.90;;;;;;5055667;28;20186;-72
2021/10/14 11:11:31;;;;;;;5.07;1.67;;;19.30;92.00;;;;;;5049260;28;20638;-73
2021/10/14 11:13:57;;;;;;;4.80;1.45;;;19.30;92.00;;;;;;5031008;28;20241;-71
2021/10/14 11:16:26;;;;;;;10.32;2.03;;;19.60;91.80;;;;;;5044495;28;20615;-71
2021/10/14 11:18:55;;;;;;;5.43;1.80;;;19.90;91.40;;;;;;5039840;28;20179;-72
2021/10/14 11:21:22;;;;;;;6.50;1.80;;;20.30;90.80;;;;;;5057942;28;20178;-72
2021/10/14 11:23:51;;;;;;;6.60;1.50;;;20.70;90.00;;;;;;5062591;28;20273;-72
2021/10/14 11:26:23;;;;;;;5.13;1.45;;;21.10;88.80;;;;;;5063011;28;20199;-71
2021/10/14 11:28:52;;;;;;;2.80;1.40;;;21.40;87.30;;;;;;5061253;28;20481;-71
2021/10/14 11:31:36;;;;;;;6.05;1.35;;;21.70;85.90;;;;;;5067704;28;20580;-72
2021/10/14 11:34:08;;;;;;;4.95;1.35;;;21.80;83.10;;;;;;5079666;28;20178;-72
2021/10/14 11:36:34;;;;;;;5.05;1.50;;;21.90;83.30;;;;;;5058129;28;20183;-71
2021/10/14 11:39:09;;;;;;;4.10;1.42;;;22.00;82.50;;;;;;5058538;28;20192;-71
2021/10/14 11:41:36;;;;;;;5.70;1.50;;;22.20;81.40;;;;;;5052023;28;20186;-72
2021/10/14 11:44:04;;;;;;;3.97;1.20;;;22.40;79.80;;;;;;5056217;28;20598;-71
2021/10/14 11:46:32;;;;;;;3.58;1.45;;;22.40;78.20;;;;;;5067159;28;20597;-71
2021/10/14 11:49:01;;;;;;;6.95;1.50;;;22.20;77.70;;;;;;5062522;28;20443;-72
2021/10/14 11:51:29;;;;;;;5.23;1.33;;;23.00;69.80;;;;;;5063738;28;20414;-71
2021/10/14 11:54:03;;;;;;;6.75;1.60;;;23.40;67.60;;;;;;5057474;28;20419;-70
2021/10/14 11:56:29;;;;;;;5.43;1.80;;;23.80;66.00;;;;;;5065145;28;20457;-71
2021/10/14 11:59:02;;;;;;;5.78;1.55;;;24.00;63.80;;;;;;5075354;28;20412;-70
2021/10/14 12:01:29;;;;;;;4.78;1.60;;;23.90;63.60;;;;;;5081382;28;20404;-71
2021/10/14 12:03:55;;;;;;;6.78;1.52;;;23.70;63.70;;;;;;5024395;28;1044361;-71
2021/10/14 12:06:22;;;;;;;6.07;1.80;;;23.40;65.40;;;;;;5067309;28;20414;-71
2021/10/14 12:08:48;;;;;;;6.47;1.80;;;23.20;67.60;;;;;;5061601;28;20892;-71
2021/10/14 12:11:19;;;;;;;6.47;1.58;;;23.40;66.70;;;;;;5063989;28;20420;-72
2021/10/14 12:13:55;;;;;;;5.45;1.52;;;23.60;64.30;;;;;;5063638;28;20480;-71
2021/10/14 12:16:21;;;;;;;7.28;1.50;;;23.70;64.70;;;;;;5049246;28;20442;-71
2021/10/14 12:18:47;;;;;;;5.80;1.48;;;23.70;62.60;;;;;;5058560;28;20445;-71
2021/10/14 12:21:47;;;;;;;6.35;1.60;;;23.60;63.30;;;;;;5062744;28;20422;-72
2021/10/14 12:24:23;;;;;;;5.32;1.75;;;23.50;62.40;;;;;;5024521;28;20881;-71
2021/10/14 12:26:54;;;;;;;4.53;1.55;;;23.60;63.30;;;;;;5039930;28;20459;-71
2021/10/14 12:29:22;;;;;;;7.10;1.58;;;23.80;62.80;;;;;;5064956;28;20403;-72
2021/10/14 12:31:49;;;;;;;8.73;1.60;;;24.00;60.50;;;;;;5066625;28;20447;-72
2021/10/14 12:34:15;;;;;;;4.38;1.67;;;24.10;60.80;;;;;;5064869;28;20426;-72
2021/10/14 12:36:46;;;;;;;4.85;1.90;;;24.20;60.20;;;;;;5046318;28;21132;-72
2021/10/14 12:39:22;;;;;;;3.92;1.50;;;24.30;59.70;;;;;;5062311;28;20415;-71